createdAt,value
2019-04-04T00:00:52.019Z,1.23
2019-04-04T00:03:21.065Z,0.80
2019-04-04T00:05:50.556Z,1.70
2019-04-04T00:08:19.061Z,0.77
2019-04-04T00:10:47.559Z,1.70
2019-04-04T00:13:16.046Z,1.20
2019-04-04T00:15:45.610Z,0.80
2019-04-04T00:18:14.528Z,1.07
2019-04-04T00:20:43.005Z,0.93
2019-04-04T00:23:11.523Z,0.90
2019-04-04T00:25:40.502Z,0.80
2019-04-04T00:28:09.362Z,0.80
2019-04-04T00:30:37.945Z,1.00
2019-04-04T00:33:06.504Z,1.10
2019-04-04T00:35:34.986Z,0.87
2019-04-04T00:38:06.785Z,0.63
2019-04-04T00:40:33.709Z,0.70
2019-04-04T00:43:02.212Z,0.67
2019-04-04T00:45:31.962Z,1.07
2019-04-04T00:48:01.125Z,0.80
2019-04-04T00:50:30.736Z,0.80
2019-04-04T00:52:59.221Z,0.80
2019-04-04T00:55:27.722Z,0.80
2019-04-04T00:57:56.197Z,0.90
2019-04-04T01:00:24.707Z,0.80
2019-04-04T01:02:53.265Z,1.20
2019-04-04T01:05:21.747Z,1.20
2019-04-04T01:07:50.256Z,0.80
2019-04-04T01:10:19.508Z,1.20
2019-04-04T01:12:48.202Z,0.90
2019-04-04T01:15:16.749Z,1.20
2019-04-04T01:17:45.238Z,0.80
2019-04-04T01:20:14.286Z,0.80
2019-04-04T01:22:42.778Z,0.80
2019-04-04T01:25:11.421Z,1.10
2019-04-04T01:27:39.998Z,0.80
2019-04-04T01:30:11.768Z,0.80
2019-04-04T01:32:39.541Z,1.10
2019-04-04T01:35:08.273Z,1.00
2019-04-04T01:37:36.781Z,1.40
2019-04-04T01:40:05.895Z,1.40
2019-04-04T01:42:37.808Z,1.53
2019-04-04T01:45:06.799Z,0.80
2019-04-04T01:47:35.311Z,0.80
2019-04-04T01:50:04.071Z,0.90
2019-04-04T01:52:32.520Z,0.90
2019-04-04T01:55:03.290Z,0.80
2019-04-04T01:57:31.259Z,0.97
2019-04-04T01:59:59.743Z,0.90
2019-04-04T02:02:28.336Z,0.80
2019-04-04T02:04:56.829Z,0.80
2019-04-04T02:07:25.331Z,0.80
2019-04-04T02:09:53.843Z,0.70
2019-04-04T02:12:22.325Z,0.70
2019-04-04T02:14:50.862Z,0.60
2019-04-04T02:17:20.081Z,1.43
2019-04-04T02:19:49.597Z,0.70
2019-04-04T02:22:18.095Z,0.60
2019-04-04T02:24:46.592Z,0.60
2019-04-04T02:27:15.097Z,0.70
2019-04-04T02:29:43.585Z,0.50
2019-04-04T02:32:13.741Z,0.70
2019-04-04T02:34:42.326Z,0.63
2019-04-04T02:37:10.874Z,0.60
2019-04-04T02:39:39.423Z,0.70
2019-04-04T02:42:08.001Z,1.43
2019-04-04T02:44:36.657Z,0.60
2019-04-04T02:47:05.328Z,0.90
2019-04-04T02:49:33.818Z,0.70
2019-04-04T02:52:02.377Z,0.90
2019-04-04T02:54:30.867Z,0.80
2019-04-04T02:56:59.382Z,0.80
2019-04-04T02:59:27.876Z,1.43
2019-04-04T03:01:56.439Z,0.93
2019-04-04T03:04:25.026Z,1.30
2019-04-04T03:06:57.184Z,1.13
2019-04-04T03:09:23.944Z,1.20
2019-04-04T03:11:54.044Z,1.60
2019-04-04T03:14:22.693Z,1.20
2019-04-04T03:16:51.174Z,1.17
2019-04-04T03:19:19.692Z,1.57
2019-04-04T03:21:48.165Z,1.37
2019-04-04T03:24:16.634Z,1.67
2019-04-04T03:26:45.152Z,2.80
2019-04-04T03:29:13.656Z,1.67
2019-04-04T03:31:42.352Z,2.50
2019-04-04T03:34:12.566Z,1.60
2019-04-04T03:36:41.228Z,1.50
2019-04-04T03:39:09.752Z,1.50
2019-04-04T03:41:38.235Z,2.03
2019-04-04T03:44:06.743Z,2.03
2019-04-04T03:46:38.718Z,1.83
2019-04-04T03:49:05.447Z,2.80
2019-04-04T03:51:36.948Z,2.30
2019-04-04T03:54:05.912Z,1.70
2019-04-04T03:56:39.169Z,1.97
2019-04-04T03:59:05.044Z,2.07
2019-04-04T04:01:33.631Z,2.53
2019-04-04T04:04:02.137Z,1.83
2019-04-04T04:06:30.633Z,2.77
2019-04-04T04:08:59.162Z,8.50
2019-04-04T04:11:27.962Z,8.13
2019-04-04T04:13:56.463Z,6.60
2019-04-04T04:16:24.971Z,6.27
2019-04-04T04:18:54.413Z,5.67
2019-04-04T04:21:23.839Z,5.20
2019-04-04T04:23:56.197Z,5.03
2019-04-04T04:26:22.544Z,3.90
2019-04-04T04:28:53.177Z,4.80
2019-04-04T04:31:21.293Z,3.00
2019-04-04T04:33:49.926Z,3.77
2019-04-04T04:36:18.765Z,4.03
2019-04-04T04:38:47.298Z,3.57
2019-04-04T04:41:19.767Z,2.87
2019-04-04T04:43:46.035Z,4.37
2019-04-04T04:46:17.137Z,4.47
2019-04-04T04:48:44.747Z,4.43
2019-04-04T04:51:13.255Z,4.87
2019-04-04T04:53:41.733Z,3.17
2019-04-04T04:56:10.242Z,3.77
2019-04-04T04:58:41.719Z,3.57
2019-04-04T05:01:08.954Z,5.03
2019-04-04T05:03:37.445Z,5.33
2019-04-04T05:06:06.091Z,3.63
2019-04-04T05:08:34.627Z,2.73
2019-04-04T05:11:03.518Z,3.17
2019-04-04T05:13:32.134Z,2.13
2019-04-04T05:16:02.076Z,2.03
2019-04-04T05:18:30.834Z,3.30
2019-04-04T05:21:01.404Z,1.63
2019-04-04T05:23:29.522Z,2.03
2019-04-04T05:25:58.050Z,1.93
2019-04-04T05:28:26.525Z,3.07
2019-04-04T05:30:55.004Z,3.43
2019-04-04T05:33:27.011Z,2.50
2019-04-04T05:35:53.731Z,3.47
2019-04-04T05:38:22.214Z,2.40
2019-04-04T05:40:50.685Z,2.67
2019-04-04T05:43:19.207Z,2.60
2019-04-04T05:45:47.682Z,3.33
2019-04-04T05:48:16.175Z,3.90
2019-04-04T05:50:44.689Z,4.20
2019-04-04T05:53:13.583Z,2.73
2019-04-04T05:55:42.482Z,2.40
2019-04-04T05:58:11.187Z,2.00
2019-04-04T06:00:41.329Z,1.60
2019-04-04T06:03:10.280Z,1.90
2019-04-04T06:05:38.747Z,1.57
2019-04-04T06:08:08.167Z,1.30
2019-04-04T06:10:37.383Z,1.70
2019-04-04T06:13:05.867Z,2.30
2019-04-04T06:15:34.354Z,1.97
2019-04-04T06:18:02.979Z,2.03
2019-04-04T06:20:31.457Z,3.20
2019-04-04T06:22:59.954Z,3.27
2019-04-04T06:25:34.351Z,4.33
2019-04-04T06:27:58.741Z,6.73
2019-04-04T06:30:27.293Z,7.20
2019-04-04T06:32:55.807Z,6.87
2019-04-04T06:35:24.304Z,6.10
2019-04-04T06:37:52.801Z,4.33
2019-04-04T06:40:21.303Z,6.23
2019-04-04T06:42:49.996Z,6.27
2019-04-04T06:45:18.472Z,6.03
2019-04-04T06:47:47.150Z,6.37
2019-04-04T06:50:15.888Z,6.83
2019-04-04T06:52:44.402Z,5.53
2019-04-04T06:55:13.087Z,5.70
2019-04-04T06:57:41.593Z,6.00
2019-04-04T07:00:10.919Z,7.43
2019-04-04T07:02:39.417Z,5.10
2019-04-04T07:05:10.569Z,4.90
2019-04-04T07:07:39.135Z,4.33
2019-04-04T07:10:08.380Z,4.70
2019-04-04T07:12:38.699Z,8.17
2019-04-04T07:15:12.525Z,8.27
2019-04-04T07:17:40.481Z,4.70
2019-04-04T07:20:10.302Z,4.93
2019-04-04T07:22:38.798Z,4.33
2019-04-04T07:25:07.513Z,6.00
2019-04-04T07:27:36.036Z,6.53
2019-04-04T07:30:08.390Z,4.90
2019-04-04T07:32:36.889Z,5.77
2019-04-04T07:35:07.335Z,5.60
2019-04-04T07:37:35.821Z,5.03
2019-04-04T07:40:06.431Z,3.80
2019-04-04T07:42:34.960Z,5.27
2019-04-04T07:45:05.522Z,3.37
2019-04-04T07:47:34.045Z,4.90
2019-04-04T07:50:02.609Z,4.60
2019-04-04T07:52:33.112Z,6.50
2019-04-04T07:55:02.959Z,5.77
2019-04-04T07:57:31.616Z,6.13
2019-04-04T08:00:00.111Z,18.43
2019-04-04T08:02:28.662Z,8.47
2019-04-04T08:04:57.185Z,17.57
2019-04-04T08:07:26.036Z,14.23
2019-04-04T08:09:54.529Z,13.07
2019-04-04T08:12:23.063Z,9.03
2019-04-04T08:14:51.556Z,6.53
2019-04-04T08:17:20.066Z,5.10
2019-04-04T08:19:59.255Z,5.80
2019-04-04T08:22:18.945Z,7.13
2019-04-04T08:24:47.521Z,6.53
2019-04-04T08:27:16.967Z,7.60
2019-04-04T08:29:45.529Z,7.60
2019-04-04T08:32:14.037Z,5.70
2019-04-04T08:34:42.500Z,6.30
2019-04-04T08:37:11.051Z,6.70
2019-04-04T08:39:39.558Z,6.97
2019-04-04T08:42:08.031Z,5.13
2019-04-04T08:44:36.531Z,4.27
2019-04-04T08:47:05.187Z,9.30
2019-04-04T08:49:34.084Z,5.27
2019-04-04T08:52:02.533Z,8.73
2019-04-04T08:54:31.006Z,8.43
2019-04-04T08:56:59.495Z,5.97
2019-04-04T08:59:28.052Z,5.67
2019-04-04T09:01:56.600Z,4.17
2019-04-04T09:04:25.109Z,3.70
2019-04-04T09:06:53.674Z,5.60
2019-04-04T09:09:22.175Z,5.33
2019-04-04T09:11:50.967Z,6.23
2019-04-04T09:14:19.470Z,6.40
2019-04-04T09:16:47.959Z,5.77
2019-04-04T09:19:16.449Z,4.70
2019-04-04T09:21:45.011Z,6.33
2019-04-04T09:24:13.496Z,7.87
2019-04-04T09:26:41.978Z,5.93
2019-04-04T09:29:10.482Z,5.73
2019-04-04T09:31:38.972Z,6.13
2019-04-04T09:34:07.533Z,8.03
2019-04-04T09:36:36.040Z,4.67
2019-04-04T09:39:06.731Z,5.07
2019-04-04T09:41:35.293Z,9.67
2019-04-04T09:44:05.998Z,5.83
2019-04-04T09:46:33.998Z,5.20
2019-04-04T09:49:02.484Z,4.80
2019-04-04T09:51:30.977Z,5.57
2019-04-04T09:53:59.475Z,5.00
2019-04-04T09:56:28.629Z,10.83
2019-04-04T09:58:57.277Z,12.10
2019-04-04T10:01:25.768Z,4.50
2019-04-04T10:03:54.260Z,4.27
2019-04-04T10:06:22.770Z,5.17
2019-04-04T10:08:51.240Z,5.90
2019-04-04T10:11:20.090Z,5.63
2019-04-04T10:13:48.626Z,4.33
2019-04-04T10:16:17.176Z,5.50
2019-04-04T10:18:45.667Z,5.80
2019-04-04T10:21:14.229Z,5.73
2019-04-04T10:23:42.709Z,7.10
2019-04-04T10:26:11.302Z,7.50
2019-04-04T10:28:39.788Z,8.10
2019-04-04T10:31:08.351Z,8.47
2019-04-04T10:33:36.835Z,13.23
2019-04-04T10:36:05.459Z,11.37
2019-04-04T10:38:33.963Z,11.33
2019-04-04T10:41:02.452Z,10.03
2019-04-04T10:43:30.944Z,13.63
2019-04-04T10:45:59.530Z,15.63
2019-04-04T10:48:28.259Z,8.47
2019-04-04T10:50:57.205Z,7.87
2019-04-04T10:53:25.701Z,12.73
2019-04-04T10:55:54.468Z,11.10
2019-04-04T10:58:22.963Z,8.17
2019-04-04T11:00:51.569Z,7.37
2019-04-04T11:03:20.075Z,6.47
2019-04-04T11:05:48.587Z,9.90
2019-04-04T11:08:17.067Z,8.30
2019-04-04T11:10:45.543Z,7.73
2019-04-04T11:13:14.017Z,8.50
2019-04-04T11:15:42.574Z,9.33
2019-04-04T11:18:11.055Z,8.63
2019-04-04T11:20:39.519Z,9.43
2019-04-04T11:23:08.027Z,7.37
2019-04-04T11:25:36.536Z,8.70
2019-04-04T11:28:05.089Z,7.43
2019-04-04T11:30:33.600Z,9.53
2019-04-04T11:33:02.092Z,11.57
2019-04-04T11:35:30.629Z,9.93
2019-04-04T11:37:59.137Z,6.37
2019-04-04T11:40:27.637Z,7.07
2019-04-04T11:42:56.132Z,7.77
2019-04-04T11:45:24.609Z,9.57
2019-04-04T11:47:53.108Z,6.87
2019-04-04T11:50:21.719Z,5.70
2019-04-04T11:52:50.292Z,7.10
2019-04-04T11:55:18.980Z,8.47
2019-04-04T11:57:47.530Z,7.40
2019-04-04T12:00:17.929Z,8.57
2019-04-04T12:02:46.400Z,7.63
2019-04-04T12:05:16.688Z,6.47
2019-04-04T12:07:46.883Z,8.77
2019-04-04T12:10:15.673Z,7.63
2019-04-04T12:12:44.157Z,15.03
2019-04-04T12:15:14.326Z,14.77
2019-04-04T12:17:42.753Z,12.17
2019-04-04T12:20:13.234Z,8.97
2019-04-04T12:22:41.787Z,8.73
2019-04-04T12:25:11.198Z,11.90
2019-04-04T12:27:39.683Z,6.87
2019-04-04T12:30:10.037Z,10.13
2019-04-04T12:32:38.530Z,10.53
2019-04-04T12:35:07.274Z,9.23
2019-04-04T12:37:35.728Z,8.43
2019-04-04T12:40:19.499Z,9.10
2019-04-04T12:42:36.651Z,11.97
2019-04-04T12:45:08.111Z,11.63
2019-04-04T12:47:36.766Z,7.63
2019-04-04T12:50:06.899Z,8.87
2019-04-04T12:52:36.918Z,10.27
2019-04-04T12:55:07.243Z,8.73
2019-04-04T12:57:35.839Z,8.03
2019-04-04T13:00:07.044Z,6.87
2019-04-04T13:02:35.539Z,8.37
2019-04-04T13:05:05.146Z,8.50
2019-04-04T13:07:33.668Z,9.37
2019-04-04T13:10:11.465Z,8.87
2019-04-04T13:12:32.723Z,12.00
2019-04-04T13:15:01.240Z,9.73
2019-04-04T13:17:29.730Z,14.93
2019-04-04T13:19:58.531Z,10.57
2019-04-04T13:22:27.102Z,10.70
2019-04-04T13:24:55.968Z,10.00
2019-04-04T13:27:24.577Z,10.93
2019-04-04T13:29:53.136Z,9.77
2019-04-04T13:32:21.603Z,8.60
2019-04-04T13:34:59.255Z,7.47
2019-04-04T13:37:20.469Z,8.03
2019-04-04T13:39:48.934Z,6.47
2019-04-04T13:42:17.881Z,5.30
2019-04-04T13:44:46.344Z,11.03
2019-04-04T13:47:14.842Z,9.07
2019-04-04T13:49:44.510Z,6.67
2019-04-04T13:52:13.476Z,7.53
2019-04-04T13:54:47.204Z,7.93
2019-04-04T13:57:15.700Z,5.63
2019-04-04T13:59:44.175Z,5.60
2019-04-04T14:02:12.647Z,5.40
2019-04-04T14:04:41.124Z,5.07
2019-04-04T14:07:09.600Z,4.97
2019-04-04T14:09:38.365Z,6.13
2019-04-04T14:12:07.006Z,8.50
2019-04-04T14:14:35.538Z,7.97
2019-04-04T14:17:04.118Z,5.00
2019-04-04T14:19:32.598Z,37.53
2019-04-04T14:22:01.089Z,27.63
2019-04-04T14:24:29.601Z,29.80
2019-04-04T14:26:58.203Z,31.53
2019-04-04T14:29:28.052Z,9.50
2019-04-04T14:31:56.890Z,17.90
2019-04-04T14:34:25.367Z,8.97
2019-04-04T14:36:53.813Z,5.57
2019-04-04T14:39:22.313Z,10.83
2019-04-04T14:41:50.873Z,14.73
2019-04-04T14:44:19.350Z,10.57
2019-04-04T14:46:48.311Z,9.47
2019-04-04T14:49:17.181Z,7.57
2019-04-04T14:51:45.662Z,5.10
2019-04-04T14:54:14.156Z,4.30
2019-04-04T14:56:42.640Z,4.60
2019-04-04T14:59:11.117Z,4.00
2019-04-04T15:01:39.606Z,7.33
2019-04-04T15:04:08.109Z,3.50
2019-04-04T15:06:36.600Z,2.90
2019-04-04T15:09:08.097Z,3.73
2019-04-04T15:11:36.564Z,3.07
2019-04-04T15:14:05.050Z,2.90
2019-04-04T15:16:33.824Z,4.57
2019-04-04T15:19:02.315Z,3.47
2019-04-04T15:21:30.814Z,3.20
2019-04-04T15:23:59.298Z,3.43
2019-04-04T15:26:27.833Z,2.53
2019-04-04T15:28:56.310Z,2.10
2019-04-04T15:31:24.822Z,1.47
2019-04-04T15:33:53.330Z,1.70
2019-04-04T15:36:21.838Z,1.87
2019-04-04T15:38:50.344Z,3.17
2019-04-04T15:41:19.081Z,1.50
2019-04-04T15:43:47.571Z,1.50
2019-04-04T15:46:16.060Z,1.67
2019-04-04T15:48:44.548Z,1.80
2019-04-04T15:51:13.124Z,1.53
2019-04-04T15:53:41.618Z,3.03
2019-04-04T15:56:10.104Z,2.10
2019-04-04T15:58:38.693Z,1.57
2019-04-04T16:01:07.455Z,4.23
2019-04-04T16:03:35.955Z,2.47
2019-04-04T16:06:04.706Z,2.73
2019-04-04T16:08:33.193Z,3.80
2019-04-04T16:11:01.683Z,3.37
2019-04-04T16:13:30.181Z,4.27
2019-04-04T16:15:58.691Z,5.20
2019-04-04T16:18:27.177Z,15.03
2019-04-04T16:20:55.661Z,11.23
2019-04-04T16:23:24.206Z,5.03
2019-04-04T16:25:52.757Z,2.63
2019-04-04T16:28:21.230Z,4.50
2019-04-04T16:30:49.741Z,4.63
2019-04-04T16:33:18.319Z,3.50
2019-04-04T16:35:46.884Z,7.20
2019-04-04T16:38:15.366Z,4.00
2019-04-04T16:40:43.855Z,4.00
2019-04-04T16:43:12.338Z,3.30
2019-04-04T16:45:40.823Z,2.87
2019-04-04T16:48:09.401Z,2.80
2019-04-04T16:50:37.890Z,2.60
2019-04-04T16:53:06.522Z,3.20
2019-04-04T16:55:35.076Z,3.60
2019-04-04T16:58:03.621Z,2.30
2019-04-04T17:00:32.242Z,2.50
2019-04-04T17:03:00.741Z,6.10
2019-04-04T17:05:29.248Z,2.40
2019-04-04T17:07:57.744Z,2.93
2019-04-04T17:10:28.146Z,3.00
2019-04-04T17:12:56.480Z,5.20
2019-04-04T17:15:24.971Z,6.57
2019-04-04T17:17:53.450Z,5.30
2019-04-04T17:20:21.979Z,5.13
2019-04-04T17:22:50.440Z,4.03
2019-04-04T17:25:18.926Z,3.27
2019-04-04T17:27:47.421Z,4.23
2019-04-04T17:30:16.525Z,4.10
2019-04-04T17:32:47.961Z,3.10
2019-04-04T17:35:15.510Z,4.40
2019-04-04T17:37:43.963Z,8.10
2019-04-04T17:40:12.972Z,5.40
2019-04-04T17:42:41.789Z,3.57
2019-04-04T17:45:10.686Z,7.07
2019-04-04T17:47:40.811Z,9.37
2019-04-04T17:50:11.289Z,3.50
2019-04-04T17:52:40.172Z,5.73
2019-04-04T17:55:09.585Z,3.70
2019-04-04T17:57:38.479Z,3.97
2019-04-04T18:00:09.389Z,3.73
2019-04-04T18:02:37.955Z,7.17
2019-04-04T18:05:09.701Z,4.30
2019-04-04T18:07:38.247Z,5.30
2019-04-04T18:10:08.086Z,3.97
2019-04-04T18:12:40.486Z,3.83
2019-04-04T18:15:08.555Z,4.00
2019-04-04T18:17:37.063Z,4.40
2019-04-04T18:20:10.258Z,4.37
2019-04-04T18:22:38.738Z,4.50
2019-04-04T18:25:10.882Z,5.87
2019-04-04T18:27:39.383Z,4.80
2019-04-04T18:30:13.273Z,4.60
2019-04-04T18:32:41.827Z,4.90
2019-04-04T18:35:10.765Z,8.63
2019-04-04T18:37:39.408Z,10.77
2019-04-04T18:40:09.618Z,9.17
2019-04-04T18:42:38.163Z,8.83
2019-04-04T18:45:08.984Z,8.23
2019-04-04T18:47:37.467Z,12.57
2019-04-04T18:50:07.688Z,16.40
2019-04-04T18:52:36.352Z,17.03
2019-04-04T18:55:18.985Z,16.30
2019-04-04T18:57:37.487Z,17.57
2019-04-04T19:00:11.041Z,19.13
2019-04-04T19:02:39.984Z,19.70
2019-04-04T19:05:09.313Z,18.23
2019-04-04T19:07:39.564Z,20.17
2019-04-04T19:10:08.851Z,21.40
2019-04-04T19:12:37.328Z,20.33
2019-04-04T19:15:07.966Z,21.53
2019-04-04T19:17:36.990Z,22.60
2019-04-04T19:20:10.347Z,20.33
2019-04-04T19:22:39.201Z,21.37
2019-04-04T19:25:08.639Z,20.20
2019-04-04T19:27:37.217Z,16.63
2019-04-04T19:30:10.588Z,19.30
2019-04-04T19:32:39.220Z,20.50
2019-04-04T19:35:08.960Z,20.43
2019-04-04T19:37:37.463Z,18.03
2019-04-04T19:40:08.085Z,20.23
2019-04-04T19:42:36.615Z,23.23
2019-04-04T19:45:08.165Z,21.90
2019-04-04T19:47:36.723Z,28.97
2019-04-04T19:50:10.743Z,22.37
2019-04-04T19:52:39.229Z,24.97
2019-04-04T19:55:08.568Z,22.10
2019-04-04T19:57:37.140Z,26.43
2019-04-04T20:00:12.632Z,24.03
2019-04-04T20:02:43.825Z,24.60
2019-04-04T20:05:11.732Z,26.87
2019-04-04T20:07:40.320Z,25.27
2019-04-04T20:10:09.045Z,24.50
2019-04-04T20:12:37.527Z,20.67
2019-04-04T20:15:09.175Z,23.10
2019-04-04T20:17:37.679Z,20.97
2019-04-04T20:20:08.267Z,21.43
2019-04-04T20:22:36.765Z,22.03
2019-04-04T20:25:06.610Z,17.70
2019-04-04T20:27:35.166Z,18.37
2019-04-04T20:30:07.948Z,22.10
2019-04-04T20:32:36.459Z,24.90
2019-04-04T20:35:07.646Z,25.53
2019-04-04T20:37:36.158Z,25.10
2019-04-04T20:40:05.880Z,22.57
2019-04-04T20:42:34.377Z,23.10
2019-04-04T20:45:02.880Z,22.33
2019-04-04T20:47:33.689Z,25.57
2019-04-04T20:50:01.655Z,22.23
2019-04-04T20:52:30.174Z,21.03
2019-04-04T20:54:58.660Z,18.43
2019-04-04T20:57:27.168Z,16.80
2019-04-04T20:59:55.659Z,11.33
2019-04-04T21:02:24.149Z,13.60
2019-04-04T21:04:54.407Z,15.30
2019-04-04T21:07:22.854Z,16.17
2019-04-04T21:09:51.359Z,15.13
2019-04-04T21:12:19.837Z,15.83
2019-04-04T21:14:48.330Z,13.77
2019-04-04T21:17:16.821Z,15.07
2019-04-04T21:19:45.372Z,5.13
2019-04-04T21:22:26.585Z,7.53
2019-04-04T21:24:44.156Z,6.13
2019-04-04T21:27:12.642Z,6.07
2019-04-04T21:29:41.144Z,5.40
2019-04-04T21:32:09.653Z,3.60
2019-04-04T21:34:38.120Z,1.67
2019-04-04T21:37:06.675Z,1.80
2019-04-04T21:39:35.246Z,3.30
2019-04-04T21:42:03.739Z,3.57
2019-04-04T21:44:32.372Z,7.90
2019-04-04T21:47:00.878Z,8.33
2019-04-04T21:49:29.360Z,2.40
2019-04-04T21:51:57.842Z,1.10
2019-04-04T21:54:26.337Z,2.37
2019-04-04T21:56:54.818Z,3.67
2019-04-04T21:59:23.292Z,4.40
2019-04-04T22:01:51.920Z,6.07
2019-04-04T22:04:20.414Z,2.97
2019-04-04T22:06:48.898Z,7.73
2019-04-04T22:09:19.326Z,11.53
2019-04-04T22:11:47.871Z,10.37
2019-04-04T22:14:26.279Z,11.53
2019-04-04T22:16:54.769Z,11.10
2019-04-04T22:19:23.261Z,14.33
2019-04-04T22:21:51.797Z,12.67
2019-04-04T22:24:22.334Z,10.57
2019-04-04T22:26:50.497Z,6.50
2019-04-04T22:29:18.975Z,5.17
2019-04-04T22:31:47.449Z,9.27
2019-04-04T22:34:15.958Z,5.43
2019-04-04T22:36:44.447Z,6.13
2019-04-04T22:39:12.929Z,5.83
2019-04-04T22:41:41.434Z,6.90
2019-04-04T22:44:09.928Z,8.07
2019-04-04T22:46:38.426Z,8.83
2019-04-04T22:49:06.935Z,7.40
2019-04-04T22:51:35.408Z,7.17
2019-04-04T22:54:03.972Z,5.83
2019-04-04T22:56:32.518Z,4.57
2019-04-04T22:59:00.972Z,3.20
2019-04-04T23:01:29.453Z,2.93
2019-04-04T23:03:57.878Z,3.17
2019-04-04T23:06:26.340Z,3.10
2019-04-04T23:08:54.787Z,1.87
2019-04-04T23:11:23.273Z,2.60
2019-04-04T23:13:51.734Z,3.17
2019-04-04T23:16:20.201Z,2.43
2019-04-04T23:18:48.626Z,2.10
2019-04-04T23:21:17.080Z,1.37
2019-04-04T23:23:45.776Z,0.87
2019-04-04T23:26:14.206Z,0.87
2019-04-04T23:28:42.650Z,0.70
2019-04-04T23:31:11.115Z,0.60
2019-04-04T23:33:39.557Z,0.73
2019-04-04T23:36:08.004Z,0.90
2019-04-04T23:38:36.460Z,0.97
2019-04-04T23:41:04.984Z,1.10
2019-04-04T23:43:33.405Z,1.13
2019-04-04T23:46:01.888Z,1.10
2019-04-04T23:48:30.336Z,1.40
2019-04-04T23:50:58.792Z,1.00
2019-04-04T23:53:27.257Z,2.40
2019-04-04T23:55:55.797Z,1.63
2019-04-04T23:58:24.282Z,1.70
